Time;durP1;ratioP1;P1;durP2;ratioP2;P2;SDS_P1;SDS_P2;PMS_P1;PMS_P2;Temp;Humidity;BMP_temperature;BMP_pressure;BME280_temperature;BME280_humidity;BME280_pressure;Samples;Min_cycle;Max_cycle;Signal;HPM_P1;HPM_P2
2024/01/27 00:02:27;;;;;;;17.75;3.20;;;4.60;84.00;;;;;;9181226;19;20030;-74
2024/01/27 00:05:33;;;;;;;23.35;3.25;;;4.60;84.00;;;;;;9180919;19;20014;-74
2024/01/27 00:08:43;;;;;;;22.92;3.47;;;4.60;84.00;;;;;;9177362;19;20022;-74
2024/01/27 00:11:49;;;;;;;18.27;3.15;;;4.60;84.10;;;;;;9179740;19;20018;-75
2024/01/27 00:14:56;;;;;;;34.42;3.65;;;4.50;84.10;;;;;;9180379;19;20007;-74
2024/01/27 00:18:02;;;;;;;14.23;3.05;;;4.50;84.10;;;;;;9180221;19;20006;-72
2024/01/27 00:21:10;;;;;;;15.82;3.40;;;4.50;84.10;;;;;;9179265;19;20023;-73
2024/01/27 00:24:19;;;;;;;18.33;3.40;;;4.50;84.60;;;;;;9181176;19;20007;-74
2024/01/27 00:27:26;;;;;;;22.40;4.03;;;4.50;84.10;;;;;;9179446;19;20018;-73
2024/01/27 00:30:32;;;;;;;15.02;3.17;;;4.50;84.10;;;;;;9179657;19;20040;-73
2024/01/27 00:33:40;;;;;;;14.77;3.22;;;4.40;84.10;;;;;;9175564;19;20041;-73
2024/01/27 00:36:48;;;;;;;29.02;3.80;;;4.40;84.10;;;;;;9178790;19;20026;-74
2024/01/27 00:39:59;;;;;;;19.17;4.30;;;4.40;84.20;;;;;;9176221;19;20030;-74
2024/01/27 00:43:06;;;;;;;29.00;4.18;;;4.40;84.20;;;;;;9175217;19;20014;-73
2024/01/27 00:46:13;;;;;;;24.95;4.68;;;4.40;84.20;;;;;;9175015;19;20018;-72
2024/01/27 00:49:20;;;;;;;21.58;3.15;;;4.50;84.30;;;;;;9174624;19;20074;-74
2024/01/27 00:52:28;;;;;;;32.92;4.00;;;4.40;84.50;;;;;;9172632;19;20508;-74
2024/01/27 00:55:36;;;;;;;23.98;3.25;;;4.40;84.40;;;;;;9175422;19;20081;-73
2024/01/27 00:58:44;;;;;;;24.55;2.92;;;4.40;84.20;;;;;;9179067;19;20021;-73
2024/01/27 01:01:49;;;;;;;19.20;4.15;;;4.40;84.30;;;;;;9178860;19;20057;-73
2024/01/27 01:04:57;;;;;;;21.70;4.28;;;4.30;84.20;;;;;;9178916;19;20061;-73
2024/01/27 01:08:06;;;;;;;12.57;3.30;;;4.40;84.40;;;;;;9177521;19;20011;-73
2024/01/27 01:11:16;;;;;;;16.17;3.17;;;4.30;84.30;;;;;;9178097;19;20034;-73
2024/01/27 01:14:22;;;;;;;19.95;3.33;;;4.30;84.20;;;;;;9178899;19;20056;-75
2024/01/27 01:17:29;;;;;;;22.15;3.80;;;4.30;84.30;;;;;;9178175;19;20018;-73
2024/01/27 01:20:35;;;;;;;28.48;4.28;;;4.30;84.30;;;;;;9178726;19;20014;-73
2024/01/27 01:23:43;;;;;;;19.02;5.22;;;4.30;84.30;;;;;;9175800;19;20014;-75
2024/01/27 01:26:51;;;;;;;21.75;3.47;;;4.30;84.30;;;;;;9178292;19;20018;-76
2024/01/27 01:29:59;;;;;;;11.43;3.45;;;4.30;84.40;;;;;;9178991;19;20357;-74
2024/01/27 01:33:05;;;;;;;25.60;3.85;;;4.30;84.40;;;;;;9172986;19;20011;-73
2024/01/27 01:36:12;;;;;;;17.08;3.50;;;4.30;84.50;;;;;;9178528;19;20631;-73
2024/01/27 01:39:19;;;;;;;20.95;3.28;;;4.30;85.10;;;;;;9178272;19;20010;-73
2024/01/27 01:42:30;;;;;;;25.55;3.35;;;4.30;84.50;;;;;;9175573;19;20023;-75
2024/01/27 01:45:47;;;;;;;19.50;3.88;;;4.30;84.50;;;;;;9214945;19;21847;-75
2024/01/27 01:48:55;;;;;;;25.90;4.32;;;4.30;84.50;;;;;;9220286;19;20024;-73
2024/01/27 01:52:01;;;;;;;14.13;3.47;;;4.30;84.50;;;;;;9216862;19;20010;-74
2024/01/27 01:55:09;;;;;;;19.58;3.13;;;4.30;84.50;;;;;;9220310;19;20021;-75
2024/01/27 01:58:16;;;;;;;26.50;4.88;;;4.30;84.50;;;;;;9216720;19;20015;-74
2024/01/27 02:01:47;;;;;;;19.10;3.03;;;4.20;84.40;;;;;;9217430;19;20113;-74
2024/01/27 02:04:52;;;;;;;20.98;3.47;;;4.20;84.40;;;;;;9216160;19;20014;-74
2024/01/27 02:08:01;;;;;;;20.63;3.50;;;4.20;84.40;;;;;;9216778;19;20107;-74
2024/01/27 02:11:07;;;;;;;30.20;3.70;;;4.20;84.50;;;;;;9220132;19;20011;-74
2024/01/27 02:14:17;;;;;;;24.65;3.65;;;4.20;84.50;;;;;;9218526;19;20017;-72
2024/01/27 02:17:25;;;;;;;32.80;4.80;;;4.20;84.50;;;;;;9218560;19;20010;-73
2024/01/27 02:20:37;;;;;;;22.92;3.22;;;4.20;84.50;;;;;;9218612;19;20010;-73
2024/01/27 02:23:42;;;;;;;21.63;3.05;;;4.20;84.50;;;;;;9216702;19;20022;-73
2024/01/27 02:26:52;;;;;;;17.70;3.05;;;4.20;84.50;;;;;;9218504;19;20018;-74
2024/01/27 02:29:58;;;;;;;20.95;3.75;;;4.20;84.70;;;;;;9218613;19;20064;-73
2024/01/27 02:33:06;;;;;;;18.17;4.13;;;4.20;84.60;;;;;;9212625;19;20018;-73
2024/01/27 02:36:12;;;;;;;13.68;3.30;;;4.20;84.60;;;;;;9218002;19;20010;-73
2024/01/27 02:39:20;;;;;;;24.80;4.15;;;4.20;84.70;;;;;;9218473;19;20018;-72
2024/01/27 02:42:28;;;;;;;16.00;3.72;;;4.20;84.80;;;;;;9217606;19;20015;-73
2024/01/27 02:45:48;;;;;;;16.98;3.20;;;4.20;84.60;;;;;;9213274;19;20484;-73
2024/01/27 02:48:53;;;;;;;20.13;3.45;;;4.20;84.60;;;;;;9215908;19;20014;-74
2024/01/27 02:52:01;;;;;;;20.38;3.58;;;4.20;84.70;;;;;;9217588;19;20429;-73
2024/01/27 02:55:09;;;;;;;11.45;3.58;;;4.10;84.50;;;;;;9204957;19;20014;-74
2024/01/27 02:58:19;;;;;;;22.70;4.68;;;4.10;84.60;;;;;;9181862;19;20021;-72
2024/01/27 03:01:25;;;;;;;26.83;4.28;;;4.10;84.60;;;;;;9180839;19;20475;-74
2024/01/27 03:04:32;;;;;;;15.52;2.92;;;4.10;84.50;;;;;;9179526;19;20015;-73
2024/01/27 03:07:38;;;;;;;18.73;3.70;;;4.10;84.60;;;;;;9178980;19;20023;-74
2024/01/27 03:10:45;;;;;;;14.32;3.92;;;4.10;84.60;;;;;;9179685;19;20029;-74
2024/01/27 03:13:53;;;;;;;20.73;3.63;;;4.00;84.60;;;;;;9180929;19;20014;-74
2024/01/27 03:17:01;;;;;;;23.55;3.45;;;4.00;84.70;;;;;;9179473;19;20018;-73
2024/01/27 03:20:08;;;;;;;18.70;4.50;;;4.00;84.60;;;;;;9180427;19;20018;-73
2024/01/27 03:23:16;;;;;;;30.25;4.25;;;4.00;84.70;;;;;;9181254;19;20015;-74
2024/01/27 03:26:21;;;;;;;18.95;4.03;;;4.00;84.80;;;;;;9178345;19;20014;-74
2024/01/27 03:29:32;;;;;;;18.98;3.42;;;4.00;85.40;;;;;;9180652;19;20536;-74
2024/01/27 03:32:37;;;;;;;19.25;3.95;;;4.00;84.80;;;;;;9174850;19;20465;-73
2024/01/27 03:35:45;;;;;;;20.65;4.20;;;4.00;84.80;;;;;;9180056;19;20019;-75
2024/01/27 03:38:50;;;;;;;21.13;4.50;;;3.90;84.80;;;;;;9180890;19;21001;-73
2024/01/27 03:41:58;;;;;;;24.70;4.47;;;3.90;84.90;;;;;;9180621;19;20018;-74
2024/01/27 03:45:07;;;;;;;22.83;3.63;;;4.00;84.70;;;;;;9178963;19;20025;-74
2024/01/27 03:48:17;;;;;;;19.85;3.63;;;3.90;84.60;;;;;;9178904;19;20025;-74
2024/01/27 03:51:23;;;;;;;21.23;3.90;;;3.90;84.70;;;;;;9178836;19;20019;-74
2024/01/27 03:54:30;;;;;;;14.93;4.82;;;3.90;84.80;;;;;;9177699;19;20694;-74
2024/01/27 03:57:36;;;;;;;14.75;3.80;;;3.90;84.60;;;;;;9178109;19;20014;-73
2024/01/27 04:00:46;;;;;;;14.50;3.90;;;3.80;84.80;;;;;;9179954;19;20349;-73
2024/01/27 04:03:52;;;;;;;20.10;3.88;;;3.90;84.70;;;;;;9177799;19;20006;-73
2024/01/27 04:07:01;;;;;;;23.10;4.57;;;3.80;84.70;;;;;;9173224;19;20006;-73
2024/01/27 04:10:08;;;;;;;16.05;4.10;;;3.80;84.80;;;;;;9177269;19;20043;-72
2024/01/27 04:13:16;;;;;;;19.40;4.03;;;3.80;84.60;;;;;;9177280;19;20022;-73
2024/01/27 04:16:24;;;;;;;20.38;5.50;;;3.80;84.60;;;;;;9178169;19;20021;-73
2024/01/27 04:19:31;;;;;;;22.77;5.00;;;3.80;84.70;;;;;;9177849;19;20025;-73
2024/01/27 04:22:38;;;;;;;29.63;5.20;;;3.70;84.60;;;;;;9178581;19;20014;-73
2024/01/27 04:25:45;;;;;;;19.38;4.97;;;3.80;85.00;;;;;;9176484;19;20042;-73
2024/01/27 04:28:51;;;;;;;25.70;3.88;;;3.70;84.70;;;;;;9175585;19;20018;-72
2024/01/27 04:32:01;;;;;;;21.02;5.00;;;3.70;84.90;;;;;;9172865;19;20041;-72
2024/01/27 04:35:11;;;;;;;18.52;4.65;;;3.70;84.70;;;;;;9177789;19;20025;-73
2024/01/27 04:38:18;;;;;;;18.60;4.75;;;3.70;84.90;;;;;;9176632;19;20018;-73
2024/01/27 04:41:24;;;;;;;23.77;4.43;;;3.70;84.70;;;;;;9178767;19;20456;-73
2024/01/27 04:44:31;;;;;;;24.58;4.28;;;3.70;84.80;;;;;;9178092;19;20015;-73
2024/01/27 04:47:39;;;;;;;18.13;4.82;;;3.70;84.90;;;;;;9175752;19;20017;-73
2024/01/27 04:50:48;;;;;;;21.63;4.75;;;3.70;85.00;;;;;;9175748;19;20011;-74
2024/01/27 04:53:53;;;;;;;14.35;4.10;;;3.70;84.90;;;;;;9176738;19;20391;-74
2024/01/27 04:57:01;;;;;;;15.70;4.95;;;3.70;85.50;;;;;;9174814;19;20010;-74
2024/01/27 05:00:11;;;;;;;21.05;4.95;;;3.70;84.90;;;;;;9176314;19;20010;-74
2024/01/27 05:03:22;;;;;;;10.70;4.43;;;3.60;85.00;;;;;;9175882;19;20495;-73
2024/01/27 05:06:28;;;;;;;22.98;4.35;;;3.70;85.00;;;;;;9175293;19;20014;-73
2024/01/27 05:09:37;;;;;;;17.40;4.85;;;3.70;85.10;;;;;;9174743;19;20025;-72
2024/01/27 05:12:43;;;;;;;31.70;5.70;;;3.70;85.00;;;;;;9175265;19;20018;-72
2024/01/27 05:15:50;;;;;;;25.27;4.05;;;3.70;85.00;;;;;;9175492;19;20019;-74
2024/01/27 05:18:58;;;;;;;26.65;5.82;;;3.70;85.20;;;;;;9175724;19;20006;-74
2024/01/27 05:22:06;;;;;;;22.02;4.85;;;3.70;85.10;;;;;;9173989;19;20642;-74
2024/01/27 05:25:12;;;;;;;18.33;4.93;;;3.60;85.10;;;;;;9174209;19;20010;-74
2024/01/27 05:28:20;;;;;;;22.17;4.40;;;3.60;85.00;;;;;;9176349;19;20021;-74
2024/01/27 05:31:26;;;;;;;17.70;4.32;;;3.60;85.60;;;;;;9171425;19;20022;-73
2024/01/27 05:34:36;;;;;;;18.75;4.28;;;3.60;85.00;;;;;;9173622;19;20019;-74
2024/01/27 05:37:42;;;;;;;15.70;5.78;;;3.60;85.10;;;;;;9173815;19;20017;-74
2024/01/27 05:40:50;;;;;;;18.50;5.53;;;3.70;85.10;;;;;;9174809;19;20022;-73
2024/01/27 05:43:56;;;;;;;23.38;4.55;;;3.60;85.10;;;;;;9174592;19;20359;-74
2024/01/27 05:47:04;;;;;;;18.80;4.32;;;3.60;85.00;;;;;;9171906;19;20364;-73
2024/01/27 05:50:15;;;;;;;18.48;4.63;;;3.60;85.10;;;;;;9174761;19;20030;-73
2024/01/27 05:53:23;;;;;;;19.58;4.85;;;3.60;85.10;;;;;;9172784;19;20018;-73
2024/01/27 05:56:28;;;;;;;31.83;5.82;;;3.60;84.90;;;;;;9174598;19;20022;-73
2024/01/27 05:59:36;;;;;;;31.60;5.32;;;3.50;85.60;;;;;;9174523;19;20021;-71
2024/01/27 06:02:41;;;;;;;21.23;5.35;;;3.50;84.90;;;;;;9174052;19;20376;-73
2024/01/27 06:05:51;;;;;;;25.05;6.07;;;3.50;85.00;;;;;;9172199;19;20010;-73
2024/01/27 06:08:57;;;;;;;19.27;5.45;;;3.50;85.00;;;;;;9172412;19;20026;-75
2024/01/27 06:12:04;;;;;;;14.77;5.30;;;3.50;85.00;;;;;;9173775;19;20019;-75
2024/01/27 06:15:11;;;;;;;26.25;5.82;;;3.50;85.00;;;;;;9173613;19;20015;-74
2024/01/27 06:18:19;;;;;;;17.00;4.88;;;3.50;85.00;;;;;;9173442;19;20019;-73
2024/01/27 06:21:28;;;;;;;17.13;4.82;;;3.50;85.10;;;;;;9171517;19;20040;-73
2024/01/27 06:24:35;;;;;;;26.63;5.47;;;3.40;85.10;;;;;;9169768;19;20019;-73
2024/01/27 06:27:41;;;;;;;19.80;5.78;;;3.50;85.20;;;;;;9170879;19;20018;-74
2024/01/27 06:30:49;;;;;;;24.23;5.65;;;3.40;85.60;;;;;;9169771;19;20019;-74
2024/01/27 06:33:55;;;;;;;22.92;7.07;;;3.40;85.10;;;;;;9180407;19;20342;-74
2024/01/27 06:37:05;;;;;;;22.88;5.25;;;3.40;85.20;;;;;;9182717;19;20018;-74
2024/01/27 06:40:12;;;;;;;24.27;5.20;;;3.40;85.10;;;;;;9182840;19;20026;-74
2024/01/27 06:43:19;;;;;;;22.63;5.30;;;3.40;85.10;;;;;;9182577;19;20018;-74
2024/01/27 06:46:25;;;;;;;23.13;5.72;;;3.40;85.20;;;;;;9181309;19;20033;-74
2024/01/27 06:49:33;;;;;;;27.60;5.53;;;3.40;85.30;;;;;;9182954;19;20014;-74
2024/01/27 06:52:41;;;;;;;24.17;6.28;;;3.40;85.10;;;;;;9180684;19;20018;-74
2024/01/27 06:55:49;;;;;;;24.75;6.15;;;3.40;85.20;;;;;;9180975;19;20019;-74
2024/01/27 06:58:54;;;;;;;19.33;5.40;;;3.40;85.20;;;;;;9181075;19;20562;-74
2024/01/27 07:02:01;;;;;;;24.55;5.70;;;3.40;85.20;;;;;;9181039;19;20373;-74
2024/01/27 07:05:08;;;;;;;17.00;5.65;;;3.40;85.30;;;;;;9180364;19;20014;-74
2024/01/27 07:08:18;;;;;;;23.02;6.95;;;3.40;85.30;;;;;;9178714;19;20364;-72
2024/01/27 07:11:23;;;;;;;36.85;6.60;;;3.40;85.30;;;;;;9180835;19;20646;-73
2024/01/27 07:14:31;;;;;;;26.00;7.40;;;3.40;85.20;;;;;;9182439;19;20010;-74
2024/01/27 07:17:37;;;;;;;24.58;7.03;;;3.40;85.20;;;;;;9180768;19;20384;-74
2024/01/27 07:20:44;;;;;;;18.02;6.20;;;3.40;85.20;;;;;;9180523;19;20033;-74
2024/01/27 07:23:53;;;;;;;21.42;6.68;;;3.40;85.30;;;;;;9181416;19;20073;-73
2024/01/27 07:27:03;;;;;;;28.30;6.47;;;3.40;85.20;;;;;;9179252;19;20022;-74
2024/01/27 07:30:11;;;;;;;15.35;6.55;;;3.40;85.30;;;;;;9180250;19;20021;-74
2024/01/27 07:33:18;;;;;;;21.27;6.63;;;3.40;85.30;;;;;;9174067;19;20372;-74
2024/01/27 07:36:25;;;;;;;17.48;5.50;;;3.40;85.40;;;;;;9181924;19;20051;-75
2024/01/27 07:39:36;;;;;;;25.60;6.65;;;3.40;85.40;;;;;;9180518;19;20018;-75
2024/01/27 07:42:42;;;;;;;24.05;6.70;;;3.40;85.40;;;;;;9179918;19;20014;-75
2024/01/27 07:45:52;;;;;;;24.63;6.40;;;3.30;85.30;;;;;;9180484;19;20018;-74
2024/01/27 07:48:57;;;;;;;17.85;6.65;;;3.30;85.40;;;;;;9176334;19;20029;-75
2024/01/27 07:52:08;;;;;;;23.33;7.63;;;3.30;85.30;;;;;;9180446;19;20045;-74
2024/01/27 07:55:17;;;;;;;31.08;8.05;;;3.30;85.30;;;;;;9180367;19;20014;-73
2024/01/27 07:58:24;;;;;;;24.45;7.53;;;3.40;85.50;;;;;;9179718;19;20014;-72
2024/01/27 08:01:30;;;;;;;28.75;7.55;;;3.30;85.40;;;;;;9178221;19;20018;-73
2024/01/27 08:04:37;;;;;;;23.55;8.20;;;3.30;85.40;;;;;;9177299;19;20022;-73
2024/01/27 08:07:43;;;;;;;27.45;8.52;;;3.30;85.40;;;;;;9177867;19;20053;-75
2024/01/27 08:10:53;;;;;;;24.45;8.43;;;3.40;85.30;;;;;;9177284;19;20448;-73
2024/01/27 08:14:00;;;;;;;29.98;8.75;;;3.30;85.30;;;;;;9177002;19;20017;-73
2024/01/27 08:17:09;;;;;;;21.13;7.18;;;3.30;85.30;;;;;;9176712;19;20028;-74
2024/01/27 08:20:15;;;;;;;23.33;8.45;;;3.20;85.50;;;;;;9178230;19;20130;-73
2024/01/27 08:23:23;;;;;;;33.75;8.18;;;3.30;85.40;;;;;;9177186;19;20354;-73
2024/01/27 08:26:31;;;;;;;29.42;8.73;;;3.40;86.00;;;;;;9177035;19;20014;-74
2024/01/27 08:29:38;;;;;;;25.73;8.20;;;3.30;86.00;;;;;;9176148;19;20014;-73
2024/01/27 08:32:44;;;;;;;30.42;8.95;;;3.30;85.80;;;;;;9170831;19;20014;-73
2024/01/27 08:35:51;;;;;;;21.42;8.52;;;3.30;85.60;;;;;;9177776;19;20011;-74
2024/01/27 08:38:57;;;;;;;27.45;8.80;;;3.30;85.90;;;;;;9177290;19;20488;-74
2024/01/27 08:42:08;;;;;;;28.90;9.43;;;3.30;85.90;;;;;;9178400;19;20657;-73
2024/01/27 08:45:14;;;;;;;34.50;9.40;;;3.40;86.00;;;;;;9178453;19;20015;-74
2024/01/27 08:48:22;;;;;;;29.25;8.77;;;3.40;85.90;;;;;;9176621;19;20010;-74
2024/01/27 08:51:28;;;;;;;24.08;8.50;;;3.40;86.00;;;;;;9177188;19;20042;-75
2024/01/27 08:54:35;;;;;;;30.38;9.45;;;3.50;85.90;;;;;;9175986;19;20022;-75
2024/01/27 08:57:47;;;;;;;23.27;8.18;;;3.50;86.00;;;;;;9177147;19;20377;-74
2024/01/27 09:00:55;;;;;;;34.20;9.25;;;3.50;86.10;;;;;;9177286;19;20022;-75
2024/01/27 09:04:01;;;;;;;24.13;9.73;;;3.60;86.20;;;;;;9177899;19;20455;-75
2024/01/27 09:07:09;;;;;;;21.38;8.45;;;3.60;86.90;;;;;;9175570;19;20042;-75
2024/01/27 09:10:15;;;;;;;46.75;9.93;;;3.60;86.20;;;;;;9176453;19;20022;-75
2024/01/27 09:13:25;;;;;;;28.70;8.73;;;3.70;86.50;;;;;;9176392;19;20010;-75
2024/01/27 09:16:31;;;;;;;27.63;9.35;;;3.80;86.60;;;;;;9174997;19;20047;-74
2024/01/27 09:19:39;;;;;;;25.48;9.02;;;3.90;86.50;;;;;;9175278;19;20018;-75
2024/01/27 09:22:49;;;;;;;25.15;9.55;;;3.90;86.70;;;;;;9176598;19;20434;-75
2024/01/27 09:25:57;;;;;;;26.60;9.18;;;4.00;86.80;;;;;;9173756;19;20014;-75
2024/01/27 09:29:05;;;;;;;29.13;8.35;;;4.10;86.60;;;;;;9172589;19;20015;-75
2024/01/27 09:32:12;;;;;;;32.58;8.13;;;4.20;86.70;;;;;;9171064;19;20019;-75
2024/01/27 09:35:18;;;;;;;18.77;7.70;;;4.30;86.80;;;;;;9175415;19;20081;-75
2024/01/27 09:38:25;;;;;;;33.88;9.23;;;4.30;86.80;;;;;;9174558;19;20021;-75
2024/01/27 09:41:33;;;;;;;47.42;8.65;;;4.30;86.80;;;;;;9173665;19;20014;-75
2024/01/27 09:44:46;;;;;;;25.75;7.97;;;4.40;86.90;;;;;;9175637;19;20018;-75
2024/01/27 09:47:54;;;;;;;31.88;8.52;;;4.40;86.80;;;;;;9173903;19;20011;-74
2024/01/27 09:51:02;;;;;;;24.00;8.45;;;4.50;86.80;;;;;;9173100;19;20023;-75
2024/01/27 09:54:08;;;;;;;28.30;7.85;;;4.60;86.70;;;;;;9174595;19;20018;-76
2024/01/27 09:57:20;;;;;;;30.83;7.57;;;4.70;87.40;;;;;;9172519;19;20481;-76
2024/01/27 10:00:29;;;;;;;21.98;7.93;;;4.70;87.10;;;;;;9172080;19;20418;-76
2024/01/27 10:03:41;;;;;;;24.73;9.07;;;4.80;87.50;;;;;;9174088;19;20393;-76
2024/01/27 10:06:47;;;;;;;24.80;8.05;;;4.90;86.90;;;;;;9179451;19;20013;-76
2024/01/27 10:09:57;;;;;;;34.40;9.45;;;5.00;87.20;;;;;;9181128;19;20037;-75
2024/01/27 10:13:07;;;;;;;37.63;8.77;;;5.10;87.10;;;;;;9182829;19;20018;-77
2024/01/27 10:16:17;;;;;;;34.85;10.13;;;5.20;87.30;;;;;;9182343;19;20014;-76
2024/01/27 10:19:26;;;;;;;36.45;9.43;;;5.30;87.40;;;;;;9183392;19;20014;-75
2024/01/27 10:22:40;;;;;;;29.77;8.77;;;5.50;87.70;;;;;;9180028;19;20018;-76
2024/01/27 10:25:47;;;;;;;29.67;8.25;;;5.70;87.50;;;;;;9182440;19;20512;-77
2024/01/27 10:28:57;;;;;;;27.85;9.55;;;5.80;87.30;;;;;;9179900;19;20477;-77
2024/01/27 10:32:17;;;;;;;26.70;9.25;;;6.00;87.60;;;;;;9177185;19;20475;-77
2024/01/27 10:35:27;;;;;;;31.10;9.43;;;6.20;87.40;;;;;;9182266;19;20026;-75
2024/01/27 10:38:39;;;;;;;31.08;8.35;;;6.30;87.40;;;;;;9183017;19;20475;-75
2024/01/27 10:41:53;;;;;;;26.05;7.65;;;6.60;87.20;;;;;;9182033;19;20014;-75
2024/01/27 10:45:04;;;;;;;23.83;8.02;;;6.70;87.30;;;;;;9179625;19;20023;-75
2024/01/27 10:48:15;;;;;;;28.55;8.18;;;6.80;87.00;;;;;;9177603;19;20017;-75
2024/01/27 10:51:29;;;;;;;23.85;8.05;;;7.00;87.00;;;;;;9181971;19;20476;-75
2024/01/27 10:54:38;;;;;;;23.38;8.75;;;7.20;87.00;;;;;;9178663;19;20011;-75
2024/01/27 10:57:44;;;;;;;20.95;7.15;;;7.30;87.00;;;;;;9177526;19;20029;-75
2024/01/27 11:00:56;;;;;;;25.67;7.22;;;7.40;86.80;;;;;;9179795;19;20015;-75
2024/01/27 11:04:06;;;;;;;22.77;6.43;;;7.50;86.70;;;;;;9179483;19;20078;-76
2024/01/27 11:07:14;;;;;;;16.15;5.70;;;7.60;86.50;;;;;;9179322;19;20017;-75
2024/01/27 11:10:20;;;;;;;26.27;6.70;;;7.60;86.40;;;;;;9177173;19;20024;-75
2024/01/27 11:13:30;;;;;;;19.88;6.45;;;7.70;86.30;;;;;;9174593;19;20476;-75
2024/01/27 11:16:38;;;;;;;30.55;6.88;;;7.80;86.40;;;;;;9175407;19;20051;-75
2024/01/27 11:19:50;;;;;;;16.33;6.03;;;7.90;86.90;;;;;;9173171;19;20022;-75
2024/01/27 11:23:09;;;;;;;21.73;7.00;;;8.00;86.20;;;;;;9172998;19;20025;-75
2024/01/27 11:26:22;;;;;;;33.20;7.03;;;7.80;85.80;;;;;;9178229;19;20018;-75
2024/01/27 11:29:29;;;;;;;20.95;5.32;;;8.00;85.90;;;;;;9176178;19;20468;-75
2024/01/27 11:32:45;;;;;;;17.50;6.15;;;8.20;85.90;;;;;;9174385;19;20019;-75
2024/01/27 11:36:03;;;;;;;24.65;6.45;;;8.10;86.20;;;;;;9172819;19;20026;-76
2024/01/27 11:39:34;;;;;;;13.25;6.25;;;8.40;85.60;;;;;;9175563;19;20018;-75
2024/01/27 11:42:40;;;;;;;20.77;5.68;;;8.40;85.40;;;;;;9169497;19;20501;-75
2024/01/27 11:45:58;;;;;;;13.82;5.45;;;8.40;85.60;;;;;;9171185;19;20019;-74
2024/01/27 11:49:04;;;;;;;18.17;4.63;;;8.60;85.40;;;;;;9171881;19;20022;-74
2024/01/27 11:52:15;;;;;;;16.77;5.43;;;8.70;85.40;;;;;;9168935;19;20645;-74
2024/01/27 11:55:20;;;;;;;21.67;4.72;;;8.80;85.20;;;;;;9173004;19;20018;-75
2024/01/27 11:58:29;;;;;;;32.10;7.10;;;8.90;85.10;;;;;;9170322;19;20011;-75
2024/01/27 12:01:35;;;;;;;16.73;5.68;;;8.80;84.90;;;;;;9175255;19;20051;-75
2024/01/27 12:04:50;;;;;;;23.55;5.43;;;8.90;84.90;;;;;;9178090;19;20091;-75
2024/01/27 12:07:58;;;;;;;14.82;4.50;;;8.90;84.80;;;;;;9176578;19;20475;-74
2024/01/27 12:11:06;;;;;;;21.77;5.03;;;8.90;84.80;;;;;;9171584;19;20377;-74
2024/01/27 12:14:15;;;;;;;19.25;4.50;;;8.90;84.60;;;;;;9174770;19;20025;-75
2024/01/27 12:17:25;;;;;;;17.25;3.63;;;9.00;84.70;;;;;;9178225;19;20467;-75
2024/01/27 12:20:30;;;;;;;14.05;4.95;;;8.90;84.40;;;;;;9176053;19;20067;-73
2024/01/27 12:23:52;;;;;;;26.75;5.18;;;8.90;84.20;;;;;;9176679;19;20376;-73
2024/01/27 12:26:59;;;;;;;21.65;5.30;;;8.90;84.10;;;;;;9177634;19;20022;-74
2024/01/27 12:30:08;;;;;;;20.02;4.60;;;8.90;84.20;;;;;;9175677;19;20488;-74
2024/01/27 12:33:17;;;;;;;13.27;4.53;;;9.00;84.10;;;;;;9173966;19;20136;-73
2024/01/27 12:36:25;;;;;;;18.05;4.68;;;8.90;84.10;;;;;;9174926;19;20025;-73
2024/01/27 12:39:34;;;;;;;13.88;4.57;;;8.90;84.10;;;;;;9169539;19;20491;-74
2024/01/27 12:42:41;;;;;;;21.05;5.07;;;8.90;84.00;;;;;;9176253;19;20021;-74
2024/01/27 12:45:47;;;;;;;21.05;5.53;;;9.00;84.00;;;;;;9176286;19;20044;-74
2024/01/27 12:48:55;;;;;;;22.33;4.57;;;8.90;83.90;;;;;;9177231;19;20020;-74
2024/01/27 12:52:00;;;;;;;37.63;6.53;;;8.90;84.00;;;;;;9173517;19;20018;-74
2024/01/27 12:55:11;;;;;;;33.65;5.05;;;8.80;83.70;;;;;;9171539;19;20006;-74
2024/01/27 12:58:16;;;;;;;18.10;4.07;;;8.80;83.60;;;;;;9175713;19;20094;-74
2024/01/27 13:01:24;;;;;;;27.67;5.28;;;8.90;83.80;;;;;;9176672;19;20010;-74
2024/01/27 13:04:30;;;;;;;27.92;4.38;;;8.80;83.60;;;;;;9174445;19;20078;-74
2024/01/27 13:07:38;;;;;;;26.10;4.57;;;8.80;83.50;;;;;;9171267;19;20015;-72
2024/01/27 13:10:47;;;;;;;30.20;5.63;;;8.90;83.80;;;;;;9174001;19;20798;-74
2024/01/27 13:13:54;;;;;;;16.42;4.63;;;8.90;83.40;;;;;;9173391;19;20353;-73
2024/01/27 13:17:00;;;;;;;16.95;4.18;;;8.80;83.40;;;;;;9172632;19;20078;-73
2024/01/27 13:20:09;;;;;;;22.00;5.03;;;9.10;83.60;;;;;;9173247;19;20007;-74
2024/01/27 13:23:14;;;;;;;15.35;4.18;;;8.80;83.20;;;;;;9172204;19;20026;-74
2024/01/27 13:26:25;;;;;;;18.88;4.63;;;8.80;83.20;;;;;;9171466;19;20499;-73
2024/01/27 13:29:32;;;;;;;17.73;5.00;;;8.80;83.20;;;;;;9174543;19;20022;-72
2024/01/27 13:32:40;;;;;;;25.67;6.35;;;8.80;83.20;;;;;;9169638;19;20014;-74
2024/01/27 13:35:46;;;;;;;17.17;5.25;;;8.80;83.10;;;;;;9170216;19;20083;-75
2024/01/27 13:38:54;;;;;;;26.30;4.60;;;8.80;83.00;;;;;;9172106;19;20030;-74
2024/01/27 13:42:02;;;;;;;19.48;4.80;;;8.70;83.00;;;;;;9172291;19;20511;-75
2024/01/27 13:45:11;;;;;;;22.52;4.28;;;8.70;82.90;;;;;;9173273;19;20018;-74
2024/01/27 13:48:17;;;;;;;23.13;4.30;;;8.70;82.80;;;;;;9173899;19;20364;-74
2024/01/27 13:51:25;;;;;;;20.65;4.20;;;8.70;82.90;;;;;;9170786;19;20026;-73
2024/01/27 13:54:31;;;;;;;21.55;3.70;;;8.80;82.70;;;;;;9159719;19;20082;-73
2024/01/27 13:57:41;;;;;;;13.07;3.92;;;8.70;82.70;;;;;;9166606;19;20030;-73
2024/01/27 14:00:47;;;;;;;14.32;3.90;;;8.70;82.50;;;;;;9165300;19;20038;-73
2024/01/27 14:03:55;;;;;;;15.25;3.85;;;8.70;82.50;;;;;;9170041;19;20014;-73
2024/01/27 14:07:02;;;;;;;17.67;5.22;;;8.60;82.40;;;;;;9167030;19;20010;-73
2024/01/27 14:10:12;;;;;;;21.00;4.22;;;8.70;82.40;;;;;;9163656;19;20018;-72
2024/01/27 14:13:22;;;;;;;17.25;3.42;;;8.60;82.30;;;;;;9168610;19;20022;-73
2024/01/27 14:16:29;;;;;;;22.33;4.15;;;8.60;82.30;;;;;;9169672;19;20052;-73
2024/01/27 14:19:35;;;;;;;23.05;4.70;;;8.60;82.40;;;;;;9172569;19;20024;-74
2024/01/27 14:22:43;;;;;;;17.38;4.03;;;8.60;82.30;;;;;;9173350;19;20030;-73
2024/01/27 14:25:49;;;;;;;16.25;3.45;;;8.60;82.10;;;;;;9174718;19;20015;-73
2024/01/27 14:28:59;;;;;;;15.80;3.58;;;8.60;82.10;;;;;;9173856;19;20018;-73
2024/01/27 14:32:07;;;;;;;14.07;3.90;;;8.60;82.00;;;;;;9165954;19;20037;-73
2024/01/27 14:35:15;;;;;;;19.98;7.10;;;8.60;81.90;;;;;;9173289;19;20026;-73
2024/01/27 14:38:20;;;;;;;21.40;4.20;;;8.50;81.80;;;;;;9172632;19;20018;-73
2024/01/27 14:41:28;;;;;;;23.27;3.97;;;8.60;81.90;;;;;;9173546;19;20010;-74
2024/01/27 14:44:36;;;;;;;14.07;4.75;;;8.50;81.80;;;;;;9174286;19;20014;-73
2024/01/27 14:47:44;;;;;;;19.48;4.65;;;8.50;81.80;;;;;;9173061;19;20458;-74
2024/01/27 14:50:54;;;;;;;18.60;4.05;;;8.50;81.70;;;;;;9173307;19;20034;-74
2024/01/27 14:54:03;;;;;;;18.33;3.90;;;8.50;81.70;;;;;;9180443;19;20022;-74
2024/01/27 14:57:10;;;;;;;13.40;3.80;;;8.50;81.70;;;;;;9181407;19;20015;-74
2024/01/27 15:00:20;;;;;;;18.02;4.15;;;8.40;81.60;;;;;;9180512;19;20026;-74
2024/01/27 15:03:27;;;;;;;19.77;3.97;;;8.40;81.40;;;;;;9181206;19;20026;-73
2024/01/27 15:06:34;;;;;;;12.30;3.67;;;8.40;81.50;;;;;;9180789;19;20029;-72
2024/01/27 15:09:40;;;;;;;18.17;4.57;;;8.40;81.60;;;;;;9179610;19;20018;-73
2024/01/27 15:12:47;;;;;;;14.00;3.65;;;8.40;81.60;;;;;;9177540;19;20625;-73
2024/01/27 15:15:56;;;;;;;13.18;3.88;;;8.30;81.40;;;;;;9181962;19;20014;-73
2024/01/27 15:19:04;;;;;;;12.02;4.05;;;8.30;81.50;;;;;;9180700;19;20373;-73
2024/01/27 15:22:09;;;;;;;19.70;4.97;;;8.30;81.40;;;;;;9180097;19;20080;-73
2024/01/27 15:25:17;;;;;;;20.50;5.15;;;8.30;81.60;;;;;;9182192;19;20018;-73
2024/01/27 15:28:22;;;;;;;15.90;5.82;;;8.30;81.60;;;;;;9180107;19;20475;-73
2024/01/27 15:31:32;;;;;;;25.35;6.05;;;8.20;81.30;;;;;;9176636;19;20029;-73
2024/01/27 15:34:38;;;;;;;14.13;4.90;;;8.20;81.50;;;;;;9183902;19;20018;-74
2024/01/27 15:37:46;;;;;;;21.63;6.00;;;8.10;81.40;;;;;;9182969;19;20018;-73
2024/01/27 15:40:51;;;;;;;20.23;4.53;;;8.10;81.50;;;;;;9181203;19;20022;-74
2024/01/27 15:44:00;;;;;;;12.30;4.22;;;8.00;81.50;;;;;;9181357;19;20015;-73
2024/01/27 15:47:08;;;;;;;23.50;4.25;;;8.00;81.60;;;;;;9179848;19;20022;-74
2024/01/27 15:50:18;;;;;;;14.95;4.55;;;8.00;81.40;;;;;;9179374;19;20022;-74
2024/01/27 15:53:23;;;;;;;20.42;5.10;;;7.90;81.40;;;;;;9175586;19;20007;-73
2024/01/27 15:56:31;;;;;;;24.90;5.68;;;7.80;81.50;;;;;;9178871;19;20025;-74
2024/01/27 15:59:36;;;;;;;11.57;4.10;;;7.80;81.40;;;;;;9177339;19;20029;-73
2024/01/27 16:02:47;;;;;;;16.08;4.40;;;7.80;81.30;;;;;;9177923;19;20014;-73
2024/01/27 16:05:52;;;;;;;20.30;3.80;;;7.70;81.30;;;;;;9178436;19;20014;-73
2024/01/27 16:09:00;;;;;;;14.70;3.95;;;7.60;81.20;;;;;;9179686;19;20368;-73
2024/01/27 16:12:06;;;;;;;19.95;4.40;;;7.60;81.30;;;;;;9174309;19;20015;-73
2024/01/27 16:15:14;;;;;;;14.30;4.03;;;7.50;81.20;;;;;;9179404;19;20019;-73
2024/01/27 16:18:22;;;;;;;19.23;5.97;;;7.50;81.40;;;;;;9177220;19;20018;-73
2024/01/27 16:21:30;;;;;;;18.08;5.82;;;7.40;81.40;;;;;;9175998;19;20019;-73